sensor_id;sensor_type;location;lat;lon;timestamp;pressure;altitude;pressure_sealevel;temperature;humidity
40502;BME280;29631;49.168;9.848;2023-05-23T00:02:08;96428.13;;;23.50;88.87
40502;BME280;29631;49.168;9.848;2023-05-23T00:04:34;96416.31;;;23.46;88.07
40502;BME280;29631;49.168;9.848;2023-05-23T00:07:03;96372.09;;;23.16;88.29
40502;BME280;29631;49.168;9.848;2023-05-23T00:09:30;96414.31;;;23.39;88.41
40502;BME280;29631;49.168;9.848;2023-05-23T00:11:55;96413.72;;;23.41;88.71
40502;BME280;29631;49.168;9.848;2023-05-23T00:14:21;96431.47;;;23.42;89.02
40502;BME280;29631;49.168;9.848;2023-05-23T00:16:48;96420.25;;;23.36;88.95
40502;BME280;29631;49.168;9.848;2023-05-23T00:19:15;96413.56;;;23.33;88.84
40502;BME280;29631;49.168;9.848;2023-05-23T00:21:42;96418.09;;;23.38;88.77
40502;BME280;29631;49.168;9.848;2023-05-23T00:24:13;96403.19;;;23.27;88.82
40502;BME280;29631;49.168;9.848;2023-05-23T00:26:39;96418.66;;;23.35;88.84
40502;BME280;29631;49.168;9.848;2023-05-23T00:29:05;96362.97;;;22.93;88.99
40502;BME280;29631;49.168;9.848;2023-05-23T00:31:30;96417.56;;;23.36;88.84
40502;BME280;29631;49.168;9.848;2023-05-23T00:33:56;96431.63;;;23.33;88.95
40502;BME280;29631;49.168;9.848;2023-05-23T00:36:22;96418.81;;;23.25;88.50
40502;BME280;29631;49.168;9.848;2023-05-23T00:38:48;96428.41;;;23.31;88.82
40502;BME280;29631;49.168;9.848;2023-05-23T00:41:14;96398.00;;;23.12;88.67
40502;BME280;29631;49.168;9.848;2023-05-23T00:43:40;96421.56;;;23.20;88.57
40502;BME280;29631;49.168;9.848;2023-05-23T00:46:06;96404.16;;;23.12;88.50
40502;BME280;29631;49.168;9.848;2023-05-23T00:48:33;96399.16;;;23.06;88.29
40502;BME280;29631;49.168;9.848;2023-05-23T00:50:59;96422.44;;;23.15;88.84
40502;BME280;29631;49.168;9.848;2023-05-23T00:53:25;96409.91;;;23.06;88.49
40502;BME280;29631;49.168;9.848;2023-05-23T00:55:51;96428.09;;;23.14;88.33
40502;BME280;29631;49.168;9.848;2023-05-23T00:58:17;96422.50;;;23.10;88.63
40502;BME280;29631;49.168;9.848;2023-05-23T01:00:43;96434.06;;;23.11;88.17
40502;BME280;29631;49.168;9.848;2023-05-23T01:03:14;96433.81;;;23.07;88.49
40502;BME280;29631;49.168;9.848;2023-05-23T01:05:45;96428.03;;;22.95;88.47
40502;BME280;29631;49.168;9.848;2023-05-23T01:08:11;96433.13;;;22.97;88.28
40502;BME280;29631;49.168;9.848;2023-05-23T01:10:40;96448.41;;;23.01;88.38
40502;BME280;29631;49.168;9.848;2023-05-23T01:13:42;96443.88;;;22.97;88.54
40502;BME280;29631;49.168;9.848;2023-05-23T01:16:18;96440.66;;;22.95;88.77
40502;BME280;29631;49.168;9.848;2023-05-23T01:22:08;96433.50;;;22.85;88.46
40502;BME280;29631;49.168;9.848;2023-05-23T01:24:53;96433.03;;;22.83;88.82
40502;BME280;29631;49.168;9.848;2023-05-23T01:30:20;96449.47;;;22.77;88.45
40502;BME280;29631;49.168;9.848;2023-05-23T01:32:47;96432.41;;;22.68;88.33
40502;BME280;29631;49.168;9.848;2023-05-23T01:35:23;96442.06;;;22.69;88.56
40502;BME280;29631;49.168;9.848;2023-05-23T01:37:50;96436.16;;;22.67;88.31
40502;BME280;29631;49.168;9.848;2023-05-23T01:40:15;96433.53;;;22.62;88.41
40502;BME280;29631;49.168;9.848;2023-05-23T01:42:41;96419.78;;;22.40;88.42
40502;BME280;29631;49.168;9.848;2023-05-23T01:45:08;96438.38;;;22.60;88.64
40502;BME280;29631;49.168;9.848;2023-05-23T01:47:34;96443.25;;;22.58;88.47
40502;BME280;29631;49.168;9.848;2023-05-23T01:50:01;96429.56;;;22.55;88.10
40502;BME280;29631;49.168;9.848;2023-05-23T01:52:27;96456.69;;;22.58;88.39
40502;BME280;29631;49.168;9.848;2023-05-23T01:54:54;96444.91;;;22.54;88.60
40502;BME280;29631;49.168;9.848;2023-05-23T01:57:21;96440.09;;;22.51;88.05
40502;BME280;29631;49.168;9.848;2023-05-23T01:59:49;96439.13;;;22.42;88.40
40502;BME280;29631;49.168;9.848;2023-05-23T02:02:15;96460.56;;;22.47;88.53
40502;BME280;29631;49.168;9.848;2023-05-23T02:04:40;96457.34;;;22.45;88.04
40502;BME280;29631;49.168;9.848;2023-05-23T02:07:06;96444.56;;;22.32;88.77
40502;BME280;29631;49.168;9.848;2023-05-23T02:09:32;96442.94;;;22.36;88.25
40502;BME280;29631;49.168;9.848;2023-05-23T02:11:57;96445.63;;;22.36;88.60
40502;BME280;29631;49.168;9.848;2023-05-23T02:14:24;96445.09;;;22.34;88.71
40502;BME280;29631;49.168;9.848;2023-05-23T02:16:50;96404.53;;;22.02;88.34
40502;BME280;29631;49.168;9.848;2023-05-23T02:19:17;96460.72;;;22.27;87.86
40502;BME280;29631;49.168;9.848;2023-05-23T02:21:43;96434.75;;;22.18;87.86
40502;BME280;29631;49.168;9.848;2023-05-23T02:24:08;96452.13;;;22.25;87.99
40502;BME280;29631;49.168;9.848;2023-05-23T02:26:34;96421.53;;;21.93;88.21
40502;BME280;29631;49.168;9.848;2023-05-23T02:29:00;96430.59;;;22.02;88.26
40502;BME280;29631;49.168;9.848;2023-05-23T02:31:26;96462.16;;;22.15;88.41
40502;BME280;29631;49.168;9.848;2023-05-23T02:33:52;96451.19;;;22.11;88.32
40502;BME280;29631;49.168;9.848;2023-05-23T02:36:18;96414.88;;;21.86;88.03
40502;BME280;29631;49.168;9.848;2023-05-23T02:38:44;96463.81;;;22.11;88.42
40502;BME280;29631;49.168;9.848;2023-05-23T02:41:09;96456.66;;;22.01;88.98
40502;BME280;29631;49.168;9.848;2023-05-23T02:43:35;96461.47;;;22.04;89.19
40502;BME280;29631;49.168;9.848;2023-05-23T02:46:01;96451.63;;;21.95;88.79
40502;BME280;29631;49.168;9.848;2023-05-23T02:48:27;96467.94;;;21.98;89.23
40502;BME280;29631;49.168;9.848;2023-05-23T02:50:52;96471.72;;;21.97;89.55
40502;BME280;29631;49.168;9.848;2023-05-23T02:53:18;96449.28;;;21.84;90.20
40502;BME280;29631;49.168;9.848;2023-05-23T02:55:44;96472.84;;;21.92;90.35
40502;BME280;29631;49.168;9.848;2023-05-23T02:58:09;96470.41;;;21.90;90.97
40502;BME280;29631;49.168;9.848;2023-05-23T03:00:35;96468.81;;;21.89;90.99
40502;BME280;29631;49.168;9.848;2023-05-23T03:03:01;96469.06;;;21.92;91.02
40502;BME280;29631;49.168;9.848;2023-05-23T03:05:27;96430.09;;;21.62;90.84
40502;BME280;29631;49.168;9.848;2023-05-23T03:07:52;96483.56;;;21.96;91.63
40502;BME280;29631;49.168;9.848;2023-05-23T03:10:19;96477.09;;;21.97;91.37
40502;BME280;29631;49.168;9.848;2023-05-23T03:12:46;96463.44;;;21.89;91.15
40502;BME280;29631;49.168;9.848;2023-05-23T03:15:11;96457.34;;;21.84;91.85
40502;BME280;29631;49.168;9.848;2023-05-23T03:17:37;96489.47;;;21.93;91.68
40502;BME280;29631;49.168;9.848;2023-05-23T03:20:04;96458.41;;;21.83;91.96
40502;BME280;29631;49.168;9.848;2023-05-23T03:22:30;96490.00;;;21.95;92.44
40502;BME280;29631;49.168;9.848;2023-05-23T03:24:56;96474.44;;;21.92;92.21
40502;BME280;29631;49.168;9.848;2023-05-23T03:27:21;96472.03;;;21.91;92.80
40502;BME280;29631;49.168;9.848;2023-05-23T03:29:47;96465.88;;;21.91;92.49
40502;BME280;29631;49.168;9.848;2023-05-23T03:32:13;96464.81;;;21.87;93.12
40502;BME280;29631;49.168;9.848;2023-05-23T03:34:39;96481.38;;;21.98;93.14
40502;BME280;29631;49.168;9.848;2023-05-23T03:37:04;96475.00;;;21.90;93.28
40502;BME280;29631;49.168;9.848;2023-05-23T03:39:30;96473.34;;;21.93;93.21
40502;BME280;29631;49.168;9.848;2023-05-23T03:41:56;96466.41;;;21.88;93.49
40502;BME280;29631;49.168;9.848;2023-05-23T03:44:21;96478.72;;;21.93;93.75
40502;BME280;29631;49.168;9.848;2023-05-23T03:46:47;96476.03;;;21.93;93.72
40502;BME280;29631;49.168;9.848;2023-05-23T03:49:13;96488.09;;;21.96;93.77
40502;BME280;29631;49.168;9.848;2023-05-23T03:51:39;96500.97;;;21.99;93.96
40502;BME280;29631;49.168;9.848;2023-05-23T03:54:05;96477.16;;;21.88;94.07
40502;BME280;29631;49.168;9.848;2023-05-23T03:56:31;96503.88;;;22.07;94.08
40502;BME280;29631;49.168;9.848;2023-05-23T03:58:56;96478.69;;;21.98;93.90
40502;BME280;29631;49.168;9.848;2023-05-23T04:01:22;96492.09;;;22.03;94.32
40502;BME280;29631;49.168;9.848;2023-05-23T04:03:48;96485.66;;;21.99;94.32
40502;BME280;29631;49.168;9.848;2023-05-23T04:06:13;96513.25;;;22.10;94.36
40502;BME280;29631;49.168;9.848;2023-05-23T04:08:41;96499.63;;;22.01;94.76
40502;BME280;29631;49.168;9.848;2023-05-23T04:11:08;96505.00;;;22.01;94.83
40502;BME280;29631;49.168;9.848;2023-05-23T04:13:33;96520.50;;;22.09;94.76
40502;BME280;29631;49.168;9.848;2023-05-23T04:16:00;96500.16;;;21.98;95.38
40502;BME280;29631;49.168;9.848;2023-05-23T04:18:30;96509.25;;;22.07;95.13
40502;BME280;29631;49.168;9.848;2023-05-23T04:20:58;96507.88;;;22.10;95.25
40502;BME280;29631;49.168;9.848;2023-05-23T04:23:24;96520.47;;;22.14;94.95
40502;BME280;29631;49.168;9.848;2023-05-23T04:25:50;96522.06;;;22.15;95.40
40502;BME280;29631;49.168;9.848;2023-05-23T04:28:16;96506.25;;;22.09;95.27
40502;BME280;29631;49.168;9.848;2023-05-23T04:30:43;96501.19;;;22.07;95.46
40502;BME280;29631;49.168;9.848;2023-05-23T04:33:09;96491.03;;;21.99;95.51
40502;BME280;29631;49.168;9.848;2023-05-23T04:35:36;96514.06;;;22.10;95.38
40502;BME280;29631;49.168;9.848;2023-05-23T04:38:05;96524.75;;;22.15;95.21
40502;BME280;29631;49.168;9.848;2023-05-23T04:40:31;96493.22;;;21.97;96.17
40502;BME280;29631;49.168;9.848;2023-05-23T04:42:57;96499.28;;;22.08;95.74
40502;BME280;29631;49.168;9.848;2023-05-23T04:45:22;96511.63;;;22.09;95.78
40502;BME280;29631;49.168;9.848;2023-05-23T04:47:48;96517.81;;;22.09;96.10
40502;BME280;29631;49.168;9.848;2023-05-23T04:50:14;96524.22;;;22.13;96.24
40502;BME280;29631;49.168;9.848;2023-05-23T04:52:40;96514.31;;;22.09;96.39
40502;BME280;29631;49.168;9.848;2023-05-23T04:55:07;96514.06;;;22.05;96.30
40502;BME280;29631;49.168;9.848;2023-05-23T04:57:34;96515.63;;;22.11;96.44
40502;BME280;29631;49.168;9.848;2023-05-23T05:00:00;96515.41;;;22.08;96.61
40502;BME280;29631;49.168;9.848;2023-05-23T05:02:26;96514.66;;;22.02;96.74
40502;BME280;29631;49.168;9.848;2023-05-23T05:04:52;96528.00;;;22.12;96.56
40502;BME280;29631;49.168;9.848;2023-05-23T05:07:18;96542.50;;;22.16;96.65
40502;BME280;29631;49.168;9.848;2023-05-23T05:09:43;96516.22;;;22.08;96.79
40502;BME280;29631;49.168;9.848;2023-05-23T05:12:09;96542.16;;;22.23;97.19
40502;BME280;29631;49.168;9.848;2023-05-23T05:14:36;96522.56;;;22.22;96.62
40502;BME280;29631;49.168;9.848;2023-05-23T05:17:01;96532.47;;;22.27;97.05
40502;BME280;29631;49.168;9.848;2023-05-23T05:19:28;96540.00;;;22.30;96.89
40502;BME280;29631;49.168;9.848;2023-05-23T05:21:54;96513.44;;;22.23;96.53
40502;BME280;29631;49.168;9.848;2023-05-23T05:24:19;96517.97;;;22.23;96.62
40502;BME280;29631;49.168;9.848;2023-05-23T05:26:48;96545.84;;;22.37;96.61
40502;BME280;29631;49.168;9.848;2023-05-23T05:29:14;96541.59;;;22.31;96.79
40502;BME280;29631;49.168;9.848;2023-05-23T05:31:40;96554.69;;;22.42;96.66
40502;BME280;29631;49.168;9.848;2023-05-23T05:34:07;96523.88;;;22.30;96.60
40502;BME280;29631;49.168;9.848;2023-05-23T05:36:33;96554.63;;;22.47;96.94
40502;BME280;29631;49.168;9.848;2023-05-23T05:38:59;96511.88;;;22.17;96.93
40502;BME280;29631;49.168;9.848;2023-05-23T05:41:25;96538.56;;;22.42;97.41
40502;BME280;29631;49.168;9.848;2023-05-23T05:43:51;96541.44;;;22.51;96.77
40502;BME280;29631;49.168;9.848;2023-05-23T05:46:17;96538.22;;;22.49;97.23
40502;BME280;29631;49.168;9.848;2023-05-23T05:48:42;96537.38;;;22.53;96.91
40502;BME280;29631;49.168;9.848;2023-05-23T05:51:08;96543.22;;;22.60;97.05
40502;BME280;29631;49.168;9.848;2023-05-23T05:53:34;96548.59;;;22.60;97.16
40502;BME280;29631;49.168;9.848;2023-05-23T05:55:59;96553.38;;;22.68;96.93
40502;BME280;29631;49.168;9.848;2023-05-23T05:58:25;96534.59;;;22.63;96.68
40502;BME280;29631;49.168;9.848;2023-05-23T06:00:51;96534.59;;;22.63;97.07
40502;BME280;29631;49.168;9.848;2023-05-23T06:03:18;96547.38;;;22.76;97.08
40502;BME280;29631;49.168;9.848;2023-05-23T06:05:43;96487.50;;;22.37;96.92
40502;BME280;29631;49.168;9.848;2023-05-23T06:08:09;96566.09;;;22.86;97.12
40502;BME280;29631;49.168;9.848;2023-05-23T06:10:37;96544.13;;;22.79;97.24
40502;BME280;29631;49.168;9.848;2023-05-23T06:13:03;96564.78;;;22.83;96.56
40502;BME280;29631;49.168;9.848;2023-05-23T06:15:29;96542.88;;;22.71;97.36
40502;BME280;29631;49.168;9.848;2023-05-23T06:17:55;96547.94;;;22.73;97.49
40502;BME280;29631;49.168;9.848;2023-05-23T06:20:21;96550.63;;;22.73;97.26
40502;BME280;29631;49.168;9.848;2023-05-23T06:22:47;96565.03;;;22.87;97.38
40502;BME280;29631;49.168;9.848;2023-05-23T06:25:12;96504.59;;;22.51;97.19
40502;BME280;29631;49.168;9.848;2023-05-23T06:27:38;96562.84;;;22.89;97.61
40502;BME280;29631;49.168;9.848;2023-05-23T06:30:05;96578.13;;;22.93;97.44
40502;BME280;29631;49.168;9.848;2023-05-23T06:32:31;96570.34;;;22.92;97.78
40502;BME280;29631;49.168;9.848;2023-05-23T06:34:56;96575.72;;;22.92;97.49
40502;BME280;29631;49.168;9.848;2023-05-23T06:37:22;96581.59;;;22.99;97.59
40502;BME280;29631;49.168;9.848;2023-05-23T06:39:48;96578.38;;;22.97;97.74
40502;BME280;29631;49.168;9.848;2023-05-23T06:42:14;96571.72;;;22.89;97.42
40502;BME280;29631;49.168;9.848;2023-05-23T06:44:40;96580.53;;;22.95;97.88
40502;BME280;29631;49.168;9.848;2023-05-23T06:47:06;96603.88;;;22.99;97.66
40502;BME280;29631;49.168;9.848;2023-05-23T06:49:32;96592.34;;;22.99;97.67
40502;BME280;29631;49.168;9.848;2023-05-23T06:51:57;96603.59;;;23.06;97.42
40502;BME280;29631;49.168;9.848;2023-05-23T06:54:23;96579.97;;;22.98;97.57
40502;BME280;29631;49.168;9.848;2023-05-23T06:56:49;96585.34;;;22.98;97.79
40502;BME280;29631;49.168;9.848;2023-05-23T06:59:15;96601.38;;;23.13;97.62
40502;BME280;29631;49.168;9.848;2023-05-23T07:01:40;96593.88;;;23.10;97.41
40502;BME280;29631;49.168;9.848;2023-05-23T07:04:06;96578.38;;;22.97;97.24
40502;BME280;29631;49.168;9.848;2023-05-23T07:06:33;96608.31;;;23.19;96.69
40502;BME280;29631;49.168;9.848;2023-05-23T07:09:00;96623.88;;;23.22;96.59
40502;BME280;29631;49.168;9.848;2023-05-23T07:11:25;96609.09;;;23.19;96.20
40502;BME280;29631;49.168;9.848;2023-05-23T07:13:51;96604.63;;;23.10;96.43
40502;BME280;29631;49.168;9.848;2023-05-23T07:16:17;96613.16;;;23.17;96.05
40502;BME280;29631;49.168;9.848;2023-05-23T07:18:43;96613.22;;;23.12;95.98
40502;BME280;29631;49.168;9.848;2023-05-23T07:21:09;96630.34;;;23.21;95.99
40502;BME280;29631;49.168;9.848;2023-05-23T07:23:34;96626.31;;;23.23;95.93
40502;BME280;29631;49.168;9.848;2023-05-23T07:26:01;96622.06;;;23.17;95.53
40502;BME280;29631;49.168;9.848;2023-05-23T07:28:27;96616.69;;;23.17;95.54
40502;BME280;29631;49.168;9.848;2023-05-23T07:30:53;96616.34;;;23.24;95.48
40502;BME280;29631;49.168;9.848;2023-05-23T07:33:19;96600.75;;;23.21;95.46
40502;BME280;29631;49.168;9.848;2023-05-23T07:35:45;96626.47;;;23.32;95.33
40502;BME280;29631;49.168;9.848;2023-05-23T07:38:11;96616.56;;;23.27;94.74
40502;BME280;29631;49.168;9.848;2023-05-23T07:40:36;96616.78;;;23.31;94.60
40502;BME280;29631;49.168;9.848;2023-05-23T07:43:04;96622.41;;;23.34;94.54
40502;BME280;29631;49.168;9.848;2023-05-23T07:45:30;96627.50;;;23.36;94.67
40502;BME280;29631;49.168;9.848;2023-05-23T07:47:56;96632.81;;;23.40;94.20
40502;BME280;29631;49.168;9.848;2023-05-23T07:50:22;96625.28;;;23.42;94.25
40502;BME280;29631;49.168;9.848;2023-05-23T07:52:48;96621.22;;;23.45;94.35
40502;BME280;29631;49.168;9.848;2023-05-23T07:55:15;96633.19;;;23.57;93.77
40502;BME280;29631;49.168;9.848;2023-05-23T07:57:41;96638.44;;;23.67;93.64
40502;BME280;29631;49.168;9.848;2023-05-23T08:00:07;96635.72;;;23.72;93.13
40502;BME280;29631;49.168;9.848;2023-05-23T08:02:34;96639.47;;;23.76;93.82
40502;BME280;29631;49.168;9.848;2023-05-23T08:05:00;96637.78;;;23.80;93.14
40502;BME280;29631;49.168;9.848;2023-05-23T08:07:26;96640.88;;;23.92;93.61
40502;BME280;29631;49.168;9.848;2023-05-23T08:09:52;96649.41;;;23.99;93.15
40502;BME280;29631;49.168;9.848;2023-05-23T08:12:17;96647.75;;;24.03;92.97
40502;BME280;29631;49.168;9.848;2023-05-23T08:14:43;96647.75;;;24.03;92.92
40502;BME280;29631;49.168;9.848;2023-05-23T08:17:11;96652.06;;;24.04;92.76
40502;BME280;29631;49.168;9.848;2023-05-23T08:19:37;96647.75;;;24.03;92.58
40502;BME280;29631;49.168;9.848;2023-05-23T08:22:03;96658.53;;;24.03;91.96
40502;BME280;29631;49.168;9.848;2023-05-23T08:24:29;96662.75;;;24.09;91.96
40502;BME280;29631;49.168;9.848;2023-05-23T08:26:55;96670.78;;;24.14;91.61
40502;BME280;29631;49.168;9.848;2023-05-23T08:29:21;96667.56;;;24.12;91.43
40502;BME280;29631;49.168;9.848;2023-05-23T08:31:47;96667.00;;;24.15;90.52
40502;BME280;29631;49.168;9.848;2023-05-23T08:34:12;96672.94;;;24.12;90.61
40502;BME280;29631;49.168;9.848;2023-05-23T08:36:39;96681.47;;;24.19;89.90
40502;BME280;29631;49.168;9.848;2023-05-23T08:39:06;96677.78;;;24.15;89.86
40502;BME280;29631;49.168;9.848;2023-05-23T08:41:33;96660.56;;;24.11;89.59
40502;BME280;29631;49.168;9.848;2023-05-23T08:43:59;96674.78;;;24.16;89.90
40502;BME280;29631;49.168;9.848;2023-05-23T08:46:25;96679.59;;;24.19;89.95
40502;BME280;29631;49.168;9.848;2023-05-23T08:48:54;96696.44;;;24.30;89.61
40502;BME280;29631;49.168;9.848;2023-05-23T08:51:25;96684.63;;;24.26;89.27
40502;BME280;29631;49.168;9.848;2023-05-23T08:53:51;96687.53;;;24.29;88.93
40502;BME280;29631;49.168;9.848;2023-05-23T08:56:19;96680.19;;;24.35;88.92
40502;BME280;29631;49.168;9.848;2023-05-23T08:58:45;96685.28;;;24.36;88.79
40502;BME280;29631;49.168;9.848;2023-05-23T09:01:13;96686.97;;;24.32;88.29
40502;BME280;29631;49.168;9.848;2023-05-23T09:03:39;96680.28;;;24.30;87.53
40502;BME280;29631;49.168;9.848;2023-05-23T09:06:09;96695.50;;;24.39;87.82
40502;BME280;29631;49.168;9.848;2023-05-23T09:08:36;96689.78;;;24.46;87.60
40502;BME280;29631;49.168;9.848;2023-05-23T09:11:03;96688.47;;;24.43;86.88
40502;BME280;29631;49.168;9.848;2023-05-23T09:13:31;96688.16;;;24.45;87.24
40502;BME280;29631;49.168;9.848;2023-05-23T09:16:05;96696.78;;;24.47;86.67
40502;BME280;29631;49.168;9.848;2023-05-23T09:18:39;96677.44;;;24.40;86.39
40502;BME280;29631;49.168;9.848;2023-05-23T09:21:08;96686.28;;;24.45;86.52
40502;BME280;29631;49.168;9.848;2023-05-23T09:23:35;96703.63;;;24.58;87.08
40502;BME280;29631;49.168;9.848;2023-05-23T09:26:10;96703.06;;;24.61;86.24
40502;BME280;29631;49.168;9.848;2023-05-23T09:28:38;96691.09;;;24.67;86.60
40502;BME280;29631;49.168;9.848;2023-05-23T09:31:06;96688.69;;;24.65;86.18
40502;BME280;29631;49.168;9.848;2023-05-23T09:33:41;96671.78;;;24.60;86.29
40502;BME280;29631;49.168;9.848;2023-05-23T09:36:07;96698.53;;;24.75;85.85
40502;BME280;29631;49.168;9.848;2023-05-23T09:38:38;96684.63;;;24.68;86.02
40502;BME280;29631;49.168;9.848;2023-05-23T09:41:04;96697.72;;;24.74;85.99
40502;BME280;29631;49.168;9.848;2023-05-23T09:43:30;96690.94;;;24.77;86.21
40502;BME280;29631;49.168;9.848;2023-05-23T09:46:09;96671.47;;;24.61;86.03
40502;BME280;29631;49.168;9.848;2023-05-23T09:48:36;96684.44;;;24.78;85.56
40502;BME280;29631;49.168;9.848;2023-05-23T09:51:08;96696.53;;;24.80;85.43
40502;BME280;29631;49.168;9.848;2023-05-23T09:53:34;96704.06;;;24.83;85.70
40502;BME280;29631;49.168;9.848;2023-05-23T09:56:02;96707.56;;;24.84;85.30
40502;BME280;29631;49.168;9.848;2023-05-23T09:58:29;96660.84;;;24.51;85.34
40502;BME280;29631;49.168;9.848;2023-05-23T10:00:55;96711.34;;;24.83;85.34
40502;BME280;29631;49.168;9.848;2023-05-23T10:03:48;96681.31;;;24.71;85.02
40502;BME280;29631;49.168;9.848;2023-05-23T10:09:03;96715.13;;;24.82;84.83
40502;BME280;29631;49.168;9.848;2023-05-23T10:11:48;96709.72;;;24.82;85.18
40502;BME280;29631;49.168;9.848;2023-05-23T10:14:17;96694.28;;;24.69;84.77
40502;BME280;29631;49.168;9.848;2023-05-23T10:16:58;96713.34;;;24.77;84.00
40502;BME280;29631;49.168;9.848;2023-05-23T10:19:50;96710.91;;;24.76;84.74
40502;BME280;29631;49.168;9.848;2023-05-23T10:22:18;96726.00;;;24.77;84.64
40502;BME280;29631;49.168;9.848;2023-05-23T10:24:45;96719.06;;;24.71;84.67
40502;BME280;29631;49.168;9.848;2023-05-23T10:27:13;96711.38;;;24.64;84.50
40502;BME280;29631;49.168;9.848;2023-05-23T10:29:39;96717.56;;;24.65;83.90
40502;BME280;29631;49.168;9.848;2023-05-23T10:32:05;96714.63;;;24.61;83.92
40502;BME280;29631;49.168;9.848;2023-05-23T10:37:28;96719.72;;;24.63;83.59
40502;BME280;29631;49.168;9.848;2023-05-23T10:40:12;96711.41;;;24.59;83.47
40502;BME280;29631;49.168;9.848;2023-05-23T10:43:18;96725.88;;;24.68;83.82
40502;BME280;29631;49.168;9.848;2023-05-23T10:45:45;96704.66;;;24.62;83.43
40502;BME280;29631;49.168;9.848;2023-05-23T10:51:09;96717.91;;;24.77;83.54
40502;BME280;29631;49.168;9.848;2023-05-23T10:53:52;96696.09;;;24.73;83.82
40502;BME280;29631;49.168;9.848;2023-05-23T10:56:21;96706.97;;;24.87;83.75
40502;BME280;29631;49.168;9.848;2023-05-23T10:58:52;96713.59;;;24.94;82.95
40502;BME280;29631;49.168;9.848;2023-05-23T11:01:18;96728.78;;;25.08;82.71
40502;BME280;29631;49.168;9.848;2023-05-23T11:06:43;96713.47;;;25.04;82.54
40502;BME280;29631;49.168;9.848;2023-05-23T11:09:11;96728.72;;;25.13;82.81
40502;BME280;29631;49.168;9.848;2023-05-23T11:17:32;96720.31;;;25.15;82.14
40502;BME280;29631;49.168;9.848;2023-05-23T11:20:04;96704.03;;;25.01;81.98
40502;BME280;29631;49.168;9.848;2023-05-23T11:22:36;96725.94;;;25.18;82.48
40502;BME280;29631;49.168;9.848;2023-05-23T11:25:09;96709.31;;;25.11;82.42
40502;BME280;29631;49.168;9.848;2023-05-23T11:27:38;96730.72;;;25.21;82.66
40502;BME280;29631;49.168;9.848;2023-05-23T11:30:15;96733.16;;;25.23;82.08
40502;BME280;29631;49.168;9.848;2023-05-23T11:32:52;96730.94;;;25.25;81.73
40502;BME280;29631;49.168;9.848;2023-05-23T11:35:20;96711.13;;;25.16;81.83
40502;BME280;29631;49.168;9.848;2023-05-23T11:37:47;96725.34;;;25.21;81.42
40502;BME280;29631;49.168;9.848;2023-05-23T11:40:33;96733.38;;;25.26;81.91
40502;BME280;29631;49.168;9.848;2023-05-23T11:43:03;96710.94;;;25.07;81.92
40502;BME280;29631;49.168;9.848;2023-05-23T11:45:30;96717.41;;;25.11;81.90
40502;BME280;29631;49.168;9.848;2023-05-23T11:48:05;96732.75;;;25.29;82.15
40502;BME280;29631;49.168;9.848;2023-05-23T11:50:31;96718.31;;;25.20;81.55
40502;BME280;29631;49.168;9.848;2023-05-23T11:52:57;96716.75;;;25.19;81.26
40502;BME280;29631;49.168;9.848;2023-05-23T11:55:23;96734.38;;;25.30;81.43
40502;BME280;29631;49.168;9.848;2023-05-23T11:57:49;96722.78;;;25.30;81.21
40502;BME280;29631;49.168;9.848;2023-05-23T12:00:16;96736.97;;;25.35;81.14
40502;BME280;29631;49.168;9.848;2023-05-23T12:02:44;96732.09;;;25.37;81.01
40502;BME280;29631;49.168;9.848;2023-05-23T12:05:13;96714.16;;;25.28;80.69
40502;BME280;29631;49.168;9.848;2023-05-23T12:07:47;96727.88;;;25.31;80.62
40502;BME280;29631;49.168;9.848;2023-05-23T12:10:17;96729.69;;;25.36;80.36
40502;BME280;29631;49.168;9.848;2023-05-23T12:12:44;96701.13;;;25.16;80.02
40502;BME280;29631;49.168;9.848;2023-05-23T12:15:11;96707.03;;;25.18;80.39
40502;BME280;29631;49.168;9.848;2023-05-23T12:17:38;96728.47;;;25.28;80.50
40502;BME280;29631;49.168;9.848;2023-05-23T12:20:10;96732.19;;;25.32;79.94
40502;BME280;29631;49.168;9.848;2023-05-23T12:22:36;96727.38;;;25.29;79.82
40502;BME280;29631;49.168;9.848;2023-05-23T12:25:02;96728.09;;;25.35;79.92
40502;BME280;29631;49.168;9.848;2023-05-23T12:27:34;96703.53;;;25.18;79.38
40502;BME280;29631;49.168;9.848;2023-05-23T12:30:13;96724.16;;;25.27;79.37
40502;BME280;29631;49.168;9.848;2023-05-23T12:32:43;96727.38;;;25.29;79.26
40502;BME280;29631;49.168;9.848;2023-05-23T12:35:11;96729.56;;;25.27;79.99
40502;BME280;29631;49.168;9.848;2023-05-23T12:37:43;96719.22;;;25.16;79.20
40502;BME280;29631;49.168;9.848;2023-05-23T12:40:18;96726.50;;;25.15;79.51
40502;BME280;29631;49.168;9.848;2023-05-23T12:42:51;96736.72;;;25.18;79.28
40502;BME280;29631;49.168;9.848;2023-05-23T12:45:21;96728.22;;;25.11;79.06
40502;BME280;29631;49.168;9.848;2023-05-23T12:47:47;96715.34;;;25.03;79.50
40502;BME280;29631;49.168;9.848;2023-05-23T12:50:13;96729.31;;;25.10;79.34
40502;BME280;29631;49.168;9.848;2023-05-23T12:52:39;96690.56;;;24.83;78.80
40502;BME280;29631;49.168;9.848;2023-05-23T12:55:09;96732.31;;;25.09;79.00
40502;BME280;29631;49.168;9.848;2023-05-23T12:57:35;96703.03;;;24.97;78.68
40502;BME280;29631;49.168;9.848;2023-05-23T13:00:01;96732.06;;;25.05;79.00
40502;BME280;29631;49.168;9.848;2023-05-23T13:02:27;96715.94;;;25.00;79.11
40502;BME280;29631;49.168;9.848;2023-05-23T13:04:53;96717.03;;;24.99;78.84
40502;BME280;29631;49.168;9.848;2023-05-23T13:07:19;96720.22;;;25.01;79.21
40502;BME280;29631;49.168;9.848;2023-05-23T13:09:45;96713.72;;;25.02;78.88
40502;BME280;29631;49.168;9.848;2023-05-23T13:12:11;96714.81;;;25.01;78.69
40502;BME280;29631;49.168;9.848;2023-05-23T13:14:37;96718.66;;;25.00;78.67
40502;BME280;29631;49.168;9.848;2023-05-23T13:17:03;96724.25;;;25.04;78.79
40502;BME280;29631;49.168;9.848;2023-05-23T13:19:29;96717.47;;;25.06;79.00
40502;BME280;29631;49.168;9.848;2023-05-23T13:21:55;96708.41;;;24.97;78.69
40502;BME280;29631;49.168;9.848;2023-05-23T13:24:21;96705.72;;;24.97;78.70
40502;BME280;29631;49.168;9.848;2023-05-23T13:26:46;96718.66;;;25.00;79.15